sensor_id;sensor_type;location;lat;lon;timestamp;temperature;humidity
23497;DHT22;11925;48.122;11.560;2023-05-16T00:02:20;13.80;99.90
23497;DHT22;11925;48.122;11.560;2023-05-16T00:04:49;13.80;99.90
23497;DHT22;11925;48.122;11.560;2023-05-16T00:07:19;13.80;99.90
23497;DHT22;11925;48.122;11.560;2023-05-16T00:09:47;13.80;99.90
23497;DHT22;11925;48.122;11.560;2023-05-16T00:12:15;13.80;99.90
23497;DHT22;11925;48.122;11.560;2023-05-16T00:14:45;13.80;99.90
23497;DHT22;11925;48.122;11.560;2023-05-16T00:17:14;13.80;99.90
23497;DHT22;11925;48.122;11.560;2023-05-16T00:19:45;13.80;99.90
23497;DHT22;11925;48.122;11.560;2023-05-16T00:22:15;13.90;99.90
23497;DHT22;11925;48.122;11.560;2023-05-16T00:24:44;13.90;99.90
23497;DHT22;11925;48.122;11.560;2023-05-16T00:27:13;13.90;99.90
23497;DHT22;11925;48.122;11.560;2023-05-16T00:29:41;14.10;99.90
23497;DHT22;11925;48.122;11.560;2023-05-16T00:32:09;13.90;99.90
23497;DHT22;11925;48.122;11.560;2023-05-16T00:34:39;13.80;99.90
23497;DHT22;11925;48.122;11.560;2023-05-16T00:37:07;13.80;99.90
23497;DHT22;11925;48.122;11.560;2023-05-16T00:39:36;13.80;99.90
23497;DHT22;11925;48.122;11.560;2023-05-16T00:42:06;13.80;99.90
23497;DHT22;11925;48.122;11.560;2023-05-16T00:44:34;13.80;99.90
23497;DHT22;11925;48.122;11.560;2023-05-16T00:47:03;13.80;99.90
23497;DHT22;11925;48.122;11.560;2023-05-16T00:49:32;13.80;99.90
23497;DHT22;11925;48.122;11.560;2023-05-16T00:52:00;13.80;99.90
23497;DHT22;11925;48.122;11.560;2023-05-16T00:54:29;13.80;99.90
23497;DHT22;11925;48.122;11.560;2023-05-16T00:56:57;13.80;99.90
23497;DHT22;11925;48.122;11.560;2023-05-16T00:59:27;13.80;99.90
23497;DHT22;11925;48.122;11.560;2023-05-16T01:01:57;13.80;99.90
23497;DHT22;11925;48.122;11.560;2023-05-16T01:04:26;13.80;99.90
23497;DHT22;11925;48.122;11.560;2023-05-16T01:06:55;13.80;99.90
23497;DHT22;11925;48.122;11.560;2023-05-16T01:09:23;13.80;99.90
23497;DHT22;11925;48.122;11.560;2023-05-16T01:11:57;13.80;99.90
23497;DHT22;11925;48.122;11.560;2023-05-16T01:14:37;13.80;99.90
23497;DHT22;11925;48.122;11.560;2023-05-16T01:17:13;13.80;99.90
23497;DHT22;11925;48.122;11.560;2023-05-16T01:19:52;13.80;99.90
23497;DHT22;11925;48.122;11.560;2023-05-16T01:22:31;13.80;99.90
23497;DHT22;11925;48.122;11.560;2023-05-16T01:25:14;13.80;99.90
23497;DHT22;11925;48.122;11.560;2023-05-16T01:27:48;13.80;99.90
23497;DHT22;11925;48.122;11.560;2023-05-16T01:30:19;13.80;99.90
23497;DHT22;11925;48.122;11.560;2023-05-16T01:32:47;13.80;99.90
23497;DHT22;11925;48.122;11.560;2023-05-16T01:35:16;13.80;99.90
23497;DHT22;11925;48.122;11.560;2023-05-16T01:37:48;13.80;99.90
23497;DHT22;11925;48.122;11.560;2023-05-16T01:40:25;13.80;99.90
23497;DHT22;11925;48.122;11.560;2023-05-16T01:42:59;13.80;99.90
23497;DHT22;11925;48.122;11.560;2023-05-16T01:45:32;13.80;99.90
23497;DHT22;11925;48.122;11.560;2023-05-16T01:48:06;13.80;99.90
23497;DHT22;11925;48.122;11.560;2023-05-16T01:50:40;13.80;99.90
23497;DHT22;11925;48.122;11.560;2023-05-16T01:53:15;13.80;99.90
23497;DHT22;11925;48.122;11.560;2023-05-16T01:55:47;13.80;99.90
23497;DHT22;11925;48.122;11.560;2023-05-16T01:58:20;13.80;99.90
23497;DHT22;11925;48.122;11.560;2023-05-16T02:00:51;13.80;99.90
23497;DHT22;11925;48.122;11.560;2023-05-16T02:03:20;13.80;99.90
23497;DHT22;11925;48.122;11.560;2023-05-16T02:05:48;13.80;99.90
23497;DHT22;11925;48.122;11.560;2023-05-16T02:08:17;13.80;99.90
23497;DHT22;11925;48.122;11.560;2023-05-16T02:10:49;13.80;99.90
23497;DHT22;11925;48.122;11.560;2023-05-16T02:13:18;13.80;99.90
23497;DHT22;11925;48.122;11.560;2023-05-16T02:15:47;13.80;99.90
23497;DHT22;11925;48.122;11.560;2023-05-16T02:18:15;13.80;99.90
23497;DHT22;11925;48.122;11.560;2023-05-16T02:20:44;13.80;99.90
23497;DHT22;11925;48.122;11.560;2023-05-16T02:23:15;13.80;99.90
23497;DHT22;11925;48.122;11.560;2023-05-16T02:25:43;13.80;99.90
23497;DHT22;11925;48.122;11.560;2023-05-16T02:28:11;13.80;99.90
23497;DHT22;11925;48.122;11.560;2023-05-16T02:30:41;13.80;99.90
23497;DHT22;11925;48.122;11.560;2023-05-16T02:33:10;13.80;99.90
23497;DHT22;11925;48.122;11.560;2023-05-16T02:35:38;13.80;99.90
23497;DHT22;11925;48.122;11.560;2023-05-16T02:38:07;13.80;99.90
23497;DHT22;11925;48.122;11.560;2023-05-16T02:40:35;13.80;99.90
23497;DHT22;11925;48.122;11.560;2023-05-16T02:43:03;13.80;99.90
23497;DHT22;11925;48.122;11.560;2023-05-16T02:45:32;13.80;99.90
23497;DHT22;11925;48.122;11.560;2023-05-16T02:48:02;13.80;99.90
23497;DHT22;11925;48.122;11.560;2023-05-16T02:50:30;13.80;99.90
23497;DHT22;11925;48.122;11.560;2023-05-16T02:52:59;13.80;99.90
23497;DHT22;11925;48.122;11.560;2023-05-16T02:55:28;13.80;99.90
23497;DHT22;11925;48.122;11.560;2023-05-16T02:57:56;13.80;99.90
23497;DHT22;11925;48.122;11.560;2023-05-16T03:00:25;13.80;99.90
23497;DHT22;11925;48.122;11.560;2023-05-16T03:02:53;13.80;99.90
23497;DHT22;11925;48.122;11.560;2023-05-16T03:05:23;13.80;99.90
23497;DHT22;11925;48.122;11.560;2023-05-16T03:07:53;13.80;99.90
23497;DHT22;11925;48.122;11.560;2023-05-16T03:10:21;13.80;99.90
23497;DHT22;11925;48.122;11.560;2023-05-16T03:12:50;13.80;99.90
23497;DHT22;11925;48.122;11.560;2023-05-16T03:15:18;13.70;99.90
23497;DHT22;11925;48.122;11.560;2023-05-16T03:17:46;13.80;99.90
23497;DHT22;11925;48.122;11.560;2023-05-16T03:20:15;13.80;99.90
23497;DHT22;11925;48.122;11.560;2023-05-16T03:22:45;13.70;99.90
23497;DHT22;11925;48.122;11.560;2023-05-16T03:25:13;13.70;99.90
23497;DHT22;11925;48.122;11.560;2023-05-16T03:27:41;13.70;99.90
23497;DHT22;11925;48.122;11.560;2023-05-16T03:30:10;13.70;99.90
23497;DHT22;11925;48.122;11.560;2023-05-16T03:32:40;13.70;99.90
23497;DHT22;11925;48.122;11.560;2023-05-16T03:35:08;13.70;99.90
23497;DHT22;11925;48.122;11.560;2023-05-16T03:37:38;13.70;99.90
23497;DHT22;11925;48.122;11.560;2023-05-16T03:40:09;13.70;99.90
23497;DHT22;11925;48.122;11.560;2023-05-16T03:42:37;13.70;99.90
23497;DHT22;11925;48.122;11.560;2023-05-16T03:45:07;13.70;99.90
23497;DHT22;11925;48.122;11.560;2023-05-16T03:47:35;13.70;99.90
23497;DHT22;11925;48.122;11.560;2023-05-16T03:50:05;13.70;99.90
23497;DHT22;11925;48.122;11.560;2023-05-16T03:52:33;13.70;99.90
23497;DHT22;11925;48.122;11.560;2023-05-16T03:55:02;13.60;99.90
23497;DHT22;11925;48.122;11.560;2023-05-16T03:57:33;13.70;99.90
23497;DHT22;11925;48.122;11.560;2023-05-16T04:00:02;13.60;99.90
23497;DHT22;11925;48.122;11.560;2023-05-16T04:02:37;13.60;99.90
23497;DHT22;11925;48.122;11.560;2023-05-16T04:05:07;13.70;99.90
23497;DHT22;11925;48.122;11.560;2023-05-16T04:07:36;13.60;99.90
23497;DHT22;11925;48.122;11.560;2023-05-16T04:10:05;13.60;99.90
23497;DHT22;11925;48.122;11.560;2023-05-16T04:12:35;13.60;99.90
23497;DHT22;11925;48.122;11.560;2023-05-16T04:15:05;13.70;99.90
23497;DHT22;11925;48.122;11.560;2023-05-16T04:17:33;13.70;99.90
23497;DHT22;11925;48.122;11.560;2023-05-16T04:20:02;13.70;99.90
23497;DHT22;11925;48.122;11.560;2023-05-16T04:22:31;13.70;99.90
23497;DHT22;11925;48.122;11.560;2023-05-16T04:25:00;13.70;99.90
23497;DHT22;11925;48.122;11.560;2023-05-16T04:27:28;13.70;99.90
23497;DHT22;11925;48.122;11.560;2023-05-16T04:29:58;13.70;99.90
23497;DHT22;11925;48.122;11.560;2023-05-16T04:32:27;13.70;99.90
23497;DHT22;11925;48.122;11.560;2023-05-16T04:34:56;13.70;99.90
23497;DHT22;11925;48.122;11.560;2023-05-16T04:37:24;13.70;99.90
23497;DHT22;11925;48.122;11.560;2023-05-16T04:39:52;13.60;99.90
23497;DHT22;11925;48.122;11.560;2023-05-16T04:42:21;13.70;99.90
23497;DHT22;11925;48.122;11.560;2023-05-16T04:44:50;13.70;99.90
23497;DHT22;11925;48.122;11.560;2023-05-16T04:47:20;13.70;99.90
23497;DHT22;11925;48.122;11.560;2023-05-16T04:49:48;13.70;99.90
23497;DHT22;11925;48.122;11.560;2023-05-16T04:52:17;13.70;99.90
23497;DHT22;11925;48.122;11.560;2023-05-16T04:54:45;13.60;99.90
23497;DHT22;11925;48.122;11.560;2023-05-16T04:57:14;13.60;99.90
23497;DHT22;11925;48.122;11.560;2023-05-16T04:59:42;13.60;99.90
23497;DHT22;11925;48.122;11.560;2023-05-16T05:02:10;13.60;99.90
23497;DHT22;11925;48.122;11.560;2023-05-16T05:04:40;13.60;99.90
23497;DHT22;11925;48.122;11.560;2023-05-16T05:07:08;13.60;99.90
23497;DHT22;11925;48.122;11.560;2023-05-16T05:09:37;13.60;99.90
23497;DHT22;11925;48.122;11.560;2023-05-16T05:12:06;13.60;99.90
23497;DHT22;11925;48.122;11.560;2023-05-16T05:14:35;13.60;99.90
23497;DHT22;11925;48.122;11.560;2023-05-16T05:17:03;13.60;99.90
23497;DHT22;11925;48.122;11.560;2023-05-16T05:19:32;13.60;99.90
23497;DHT22;11925;48.122;11.560;2023-05-16T05:22:02;13.60;99.90
23497;DHT22;11925;48.122;11.560;2023-05-16T05:24:30;13.60;99.90
23497;DHT22;11925;48.122;11.560;2023-05-16T05:26:58;13.60;99.90
23497;DHT22;11925;48.122;11.560;2023-05-16T05:29:27;13.60;99.90
23497;DHT22;11925;48.122;11.560;2023-05-16T05:31:55;13.60;99.90
23497;DHT22;11925;48.122;11.560;2023-05-16T05:34:24;13.60;99.90
23497;DHT22;11925;48.122;11.560;2023-05-16T05:36:52;13.50;99.90
23497;DHT22;11925;48.122;11.560;2023-05-16T05:39:23;13.50;99.90
23497;DHT22;11925;48.122;11.560;2023-05-16T05:41:52;13.60;99.90
23497;DHT22;11925;48.122;11.560;2023-05-16T05:44:20;13.50;99.90
23497;DHT22;11925;48.122;11.560;2023-05-16T05:46:48;13.60;99.90
23497;DHT22;11925;48.122;11.560;2023-05-16T05:49:17;13.50;99.90
23497;DHT22;11925;48.122;11.560;2023-05-16T05:51:45;13.50;99.90
23497;DHT22;11925;48.122;11.560;2023-05-16T05:54:13;13.50;99.90
23497;DHT22;11925;48.122;11.560;2023-05-16T05:56:43;13.60;99.90
23497;DHT22;11925;48.122;11.560;2023-05-16T05:59:12;13.60;99.90
23497;DHT22;11925;48.122;11.560;2023-05-16T06:01:40;13.60;99.90
23497;DHT22;11925;48.122;11.560;2023-05-16T06:04:10;13.60;99.90
23497;DHT22;11925;48.122;11.560;2023-05-16T06:06:38;13.60;99.90
23497;DHT22;11925;48.122;11.560;2023-05-16T06:09:07;13.60;99.90
23497;DHT22;11925;48.122;11.560;2023-05-16T06:11:35;13.60;99.90
23497;DHT22;11925;48.122;11.560;2023-05-16T06:14:04;13.60;99.90
23497;DHT22;11925;48.122;11.560;2023-05-16T06:16:33;13.60;99.90
23497;DHT22;11925;48.122;11.560;2023-05-16T06:19:02;13.60;99.90
23497;DHT22;11925;48.122;11.560;2023-05-16T06:21:31;13.60;99.90
23497;DHT22;11925;48.122;11.560;2023-05-16T06:24:00;13.70;99.90
23497;DHT22;11925;48.122;11.560;2023-05-16T06:26:29;13.70;99.90
23497;DHT22;11925;48.122;11.560;2023-05-16T06:28:57;13.70;99.90
23497;DHT22;11925;48.122;11.560;2023-05-16T06:31:27;13.70;99.90
23497;DHT22;11925;48.122;11.560;2023-05-16T06:33:55;13.70;99.90
23497;DHT22;11925;48.122;11.560;2023-05-16T06:36:23;13.60;99.90
23497;DHT22;11925;48.122;11.560;2023-05-16T06:38:52;13.60;99.90
23497;DHT22;11925;48.122;11.560;2023-05-16T06:41:20;13.60;99.90
23497;DHT22;11925;48.122;11.560;2023-05-16T06:43:48;13.70;99.90
23497;DHT22;11925;48.122;11.560;2023-05-16T06:46:17;13.70;99.90
23497;DHT22;11925;48.122;11.560;2023-05-16T06:48:47;13.60;99.90
23497;DHT22;11925;48.122;11.560;2023-05-16T06:51:15;13.70;99.90
23497;DHT22;11925;48.122;11.560;2023-05-16T06:53:44;13.70;99.90
23497;DHT22;11925;48.122;11.560;2023-05-16T06:56:12;13.70;99.90
23497;DHT22;11925;48.122;11.560;2023-05-16T06:58:41;13.70;99.90
23497;DHT22;11925;48.122;11.560;2023-05-16T07:01:09;13.70;99.90
23497;DHT22;11925;48.122;11.560;2023-05-16T07:03:37;13.70;99.90
23497;DHT22;11925;48.122;11.560;2023-05-16T07:06:07;13.70;99.90
23497;DHT22;11925;48.122;11.560;2023-05-16T07:08:39;13.70;99.90
23497;DHT22;11925;48.122;11.560;2023-05-16T07:11:07;13.50;99.90
23497;DHT22;11925;48.122;11.560;2023-05-16T07:13:37;13.80;99.90
23497;DHT22;11925;48.122;11.560;2023-05-16T07:16:06;13.70;99.90
23497;DHT22;11925;48.122;11.560;2023-05-16T07:18:35;13.70;99.90
23497;DHT22;11925;48.122;11.560;2023-05-16T07:21:03;13.70;99.90
23497;DHT22;11925;48.122;11.560;2023-05-16T07:23:33;13.70;99.90
23497;DHT22;11925;48.122;11.560;2023-05-16T07:26:02;13.70;99.90
23497;DHT22;11925;48.122;11.560;2023-05-16T07:28:31;13.70;99.90
23497;DHT22;11925;48.122;11.560;2023-05-16T07:30:59;13.70;99.90
23497;DHT22;11925;48.122;11.560;2023-05-16T07:33:28;13.70;99.90
23497;DHT22;11925;48.122;11.560;2023-05-16T07:35:56;13.80;99.90
23497;DHT22;11925;48.122;11.560;2023-05-16T07:38:43;13.80;99.90
23497;DHT22;11925;48.122;11.560;2023-05-16T07:41:11;13.80;99.90
23497;DHT22;11925;48.122;11.560;2023-05-16T07:43:40;13.80;99.90
23497;DHT22;11925;48.122;11.560;2023-05-16T07:46:09;13.90;99.90
23497;DHT22;11925;48.122;11.560;2023-05-16T07:48:38;13.80;99.90
23497;DHT22;11925;48.122;11.560;2023-05-16T07:51:06;13.80;99.90
23497;DHT22;11925;48.122;11.560;2023-05-16T07:53:34;13.80;99.90
23497;DHT22;11925;48.122;11.560;2023-05-16T07:56:05;13.80;99.90
23497;DHT22;11925;48.122;11.560;2023-05-16T07:58:35;13.80;99.90
23497;DHT22;11925;48.122;11.560;2023-05-16T08:01:03;13.80;99.90
23497;DHT22;11925;48.122;11.560;2023-05-16T08:03:31;13.70;99.90
23497;DHT22;11925;48.122;11.560;2023-05-16T08:06:00;13.90;99.90
23497;DHT22;11925;48.122;11.560;2023-05-16T08:08:29;13.80;99.90
23497;DHT22;11925;48.122;11.560;2023-05-16T08:10:57;13.90;99.90
23497;DHT22;11925;48.122;11.560;2023-05-16T08:13:27;13.90;99.90
23497;DHT22;11925;48.122;11.560;2023-05-16T08:15:55;13.90;99.90
23497;DHT22;11925;48.122;11.560;2023-05-16T08:18:24;13.90;99.90
23497;DHT22;11925;48.122;11.560;2023-05-16T08:20:52;13.90;99.90
23497;DHT22;11925;48.122;11.560;2023-05-16T08:23:20;13.90;99.90
23497;DHT22;11925;48.122;11.560;2023-05-16T08:25:49;13.90;99.90
23497;DHT22;11925;48.122;11.560;2023-05-16T08:28:17;13.80;99.90
23497;DHT22;11925;48.122;11.560;2023-05-16T08:30:47;13.80;99.90
23497;DHT22;11925;48.122;11.560;2023-05-16T08:33:15;13.80;99.90
23497;DHT22;11925;48.122;11.560;2023-05-16T08:35:44;13.80;99.90
23497;DHT22;11925;48.122;11.560;2023-05-16T08:38:14;13.80;99.90
23497;DHT22;11925;48.122;11.560;2023-05-16T08:40:43;13.80;99.90
23497;DHT22;11925;48.122;11.560;2023-05-16T08:43:12;13.80;99.90
23497;DHT22;11925;48.122;11.560;2023-05-16T08:45:40;13.80;99.90
23497;DHT22;11925;48.122;11.560;2023-05-16T08:48:10;13.80;99.90
23497;DHT22;11925;48.122;11.560;2023-05-16T08:50:39;13.80;99.90
23497;DHT22;11925;48.122;11.560;2023-05-16T08:53:09;13.80;99.90
23497;DHT22;11925;48.122;11.560;2023-05-16T08:55:40;13.90;99.90
23497;DHT22;11925;48.122;11.560;2023-05-16T08:58:10;13.80;99.90
23497;DHT22;11925;48.122;11.560;2023-05-16T09:00:39;13.80;99.90
23497;DHT22;11925;48.122;11.560;2023-05-16T09:03:10;13.70;99.90
23497;DHT22;11925;48.122;11.560;2023-05-16T09:05:39;13.80;99.90
23497;DHT22;11925;48.122;11.560;2023-05-16T09:08:08;13.80;99.90
23497;DHT22;11925;48.122;11.560;2023-05-16T09:10:36;13.80;99.90
23497;DHT22;11925;48.122;11.560;2023-05-16T09:13:04;13.80;99.90
23497;DHT22;11925;48.122;11.560;2023-05-16T09:15:33;13.80;99.90
23497;DHT22;11925;48.122;11.560;2023-05-16T09:18:01;13.90;99.90
23497;DHT22;11925;48.122;11.560;2023-05-16T09:20:32;13.90;99.90
23497;DHT22;11925;48.122;11.560;2023-05-16T09:23:01;13.90;99.90
23497;DHT22;11925;48.122;11.560;2023-05-16T09:25:30;13.80;99.90
23497;DHT22;11925;48.122;11.560;2023-05-16T09:28:00;13.90;99.90
23497;DHT22;11925;48.122;11.560;2023-05-16T09:30:31;13.90;99.90
23497;DHT22;11925;48.122;11.560;2023-05-16T09:33:01;13.80;99.90
23497;DHT22;11925;48.122;11.560;2023-05-16T09:35:32;13.80;99.90
23497;DHT22;11925;48.122;11.560;2023-05-16T09:38:15;13.90;99.90
23497;DHT22;11925;48.122;11.560;2023-05-16T09:40:44;13.90;99.90
23497;DHT22;11925;48.122;11.560;2023-05-16T09:43:14;13.90;99.90
23497;DHT22;11925;48.122;11.560;2023-05-16T09:45:46;13.90;99.90
23497;DHT22;11925;48.122;11.560;2023-05-16T09:48:15;14.00;99.90
23497;DHT22;11925;48.122;11.560;2023-05-16T09:50:51;14.00;99.90
23497;DHT22;11925;48.122;11.560;2023-05-16T09:53:27;14.00;99.90
23497;DHT22;11925;48.122;11.560;2023-05-16T09:55:59;14.00;99.90
23497;DHT22;11925;48.122;11.560;2023-05-16T09:58:30;14.00;99.90
23497;DHT22;11925;48.122;11.560;2023-05-16T10:00:58;14.00;99.90
23497;DHT22;11925;48.122;11.560;2023-05-16T10:03:27;14.00;99.90
23497;DHT22;11925;48.122;11.560;2023-05-16T10:05:59;14.00;99.90
23497;DHT22;11925;48.122;11.560;2023-05-16T10:08:30;14.00;99.90
23497;DHT22;11925;48.122;11.560;2023-05-16T10:11:03;14.00;99.90
23497;DHT22;11925;48.122;11.560;2023-05-16T10:13:33;14.00;99.90
23497;DHT22;11925;48.122;11.560;2023-05-16T10:16:06;14.00;99.90
23497;DHT22;11925;48.122;11.560;2023-05-16T10:18:38;14.00;99.90
23497;DHT22;11925;48.122;11.560;2023-05-16T10:21:14;14.00;99.90
23497;DHT22;11925;48.122;11.560;2023-05-16T10:23:47;14.10;99.90
23497;DHT22;11925;48.122;11.560;2023-05-16T10:26:16;14.10;99.90
23497;DHT22;11925;48.122;11.560;2023-05-16T10:28:44;14.00;99.90
23497;DHT22;11925;48.122;11.560;2023-05-16T10:31:14;14.10;99.90
23497;DHT22;11925;48.122;11.560;2023-05-16T10:33:42;14.00;99.90
23497;DHT22;11925;48.122;11.560;2023-05-16T10:36:13;14.10;99.90
23497;DHT22;11925;48.122;11.560;2023-05-16T10:38:45;14.10;99.90
23497;DHT22;11925;48.122;11.560;2023-05-16T10:41:14;14.00;99.90
23497;DHT22;11925;48.122;11.560;2023-05-16T10:43:45;14.00;99.90
23497;DHT22;11925;48.122;11.560;2023-05-16T10:46:25;14.00;99.90
23497;DHT22;11925;48.122;11.560;2023-05-16T10:48:56;14.10;99.90
23497;DHT22;11925;48.122;11.560;2023-05-16T10:51:44;13.70;99.90
23497;DHT22;11925;48.122;11.560;2023-05-16T10:54:12;14.00;99.90
23497;DHT22;11925;48.122;11.560;2023-05-16T10:56:41;14.10;99.90
23497;DHT22;11925;48.122;11.560;2023-05-16T10:59:22;14.00;99.90
23497;DHT22;11925;48.122;11.560;2023-05-16T11:01:52;14.10;99.90
23497;DHT22;11925;48.122;11.560;2023-05-16T11:04:21;14.10;99.90
23497;DHT22;11925;48.122;11.560;2023-05-16T11:06:52;14.10;99.90
23497;DHT22;11925;48.122;11.560;2023-05-16T11:09:26;14.10;99.90
23497;DHT22;11925;48.122;11.560;2023-05-16T11:12:01;14.10;99.90
23497;DHT22;11925;48.122;11.560;2023-05-16T11:14:36;14.10;99.90
23497;DHT22;11925;48.122;11.560;2023-05-16T11:17:10;14.10;99.90
23497;DHT22;11925;48.122;11.560;2023-05-16T11:19:41;14.10;99.90
23497;DHT22;11925;48.122;11.560;2023-05-16T11:22:19;14.10;99.90
23497;DHT22;11925;48.122;11.560;2023-05-16T11:24:50;14.10;99.90
23497;DHT22;11925;48.122;11.560;2023-05-16T11:27:21;14.10;99.90
23497;DHT22;11925;48.122;11.560;2023-05-16T11:29:50;14.00;99.90
23497;DHT22;11925;48.122;11.560;2023-05-16T11:32:20;14.00;99.90
23497;DHT22;11925;48.122;11.560;2023-05-16T11:34:50;14.00;99.90
23497;DHT22;11925;48.122;11.560;2023-05-16T11:37:22;14.00;99.90
23497;DHT22;11925;48.122;11.560;2023-05-16T11:39:50;14.00;99.90
23497;DHT22;11925;48.122;11.560;2023-05-16T11:42:20;14.00;99.90
23497;DHT22;11925;48.122;11.560;2023-05-16T11:44:49;14.00;99.90
23497;DHT22;11925;48.122;11.560;2023-05-16T11:47:17;14.00;99.90
23497;DHT22;11925;48.122;11.560;2023-05-16T11:49:46;14.10;99.90
23497;DHT22;11925;48.122;11.560;2023-05-16T11:52:15;14.00;99.90
23497;DHT22;11925;48.122;11.560;2023-05-16T11:54:45;13.90;99.90
23497;DHT22;11925;48.122;11.560;2023-05-16T11:57:14;14.20;99.90
23497;DHT22;11925;48.122;11.560;2023-05-16T11:59:44;14.10;99.90
23497;DHT22;11925;48.122;11.560;2023-05-16T12:02:12;14.10;99.90
23497;DHT22;11925;48.122;11.560;2023-05-16T12:04:41;14.00;99.90
23497;DHT22;11925;48.122;11.560;2023-05-16T12:07:14;14.00;99.90
23497;DHT22;11925;48.122;11.560;2023-05-16T12:09:42;14.00;99.90
23497;DHT22;11925;48.122;11.560;2023-05-16T12:12:21;14.00;99.90
23497;DHT22;11925;48.122;11.560;2023-05-16T12:14:49;14.00;99.90
23497;DHT22;11925;48.122;11.560;2023-05-16T12:17:18;14.00;99.90
23497;DHT22;11925;48.122;11.560;2023-05-16T12:19:48;14.00;99.90
23497;DHT22;11925;48.122;11.560;2023-05-16T12:22:16;14.10;99.90
23497;DHT22;11925;48.122;11.560;2023-05-16T12:24:45;14.10;99.90
23497;DHT22;11925;48.122;11.560;2023-05-16T12:27:22;14.10;99.90
23497;DHT22;11925;48.122;11.560;2023-05-16T12:29:52;14.10;99.90
23497;DHT22;11925;48.122;11.560;2023-05-16T12:32:21;14.10;99.90
23497;DHT22;11925;48.122;11.560;2023-05-16T12:34:50;14.10;99.90
23497;DHT22;11925;48.122;11.560;2023-05-16T12:37:21;14.10;99.90
23497;DHT22;11925;48.122;11.560;2023-05-16T12:39:50;14.10;99.90
23497;DHT22;11925;48.122;11.560;2023-05-16T12:42:18;14.10;99.90
23497;DHT22;11925;48.122;11.560;2023-05-16T12:44:48;14.10;99.90
23497;DHT22;11925;48.122;11.560;2023-05-16T12:47:17;14.10;99.90
23497;DHT22;11925;48.122;11.560;2023-05-16T12:49:47;14.10;99.90
23497;DHT22;11925;48.122;11.560;2023-05-16T12:52:17;14.10;99.90
23497;DHT22;11925;48.122;11.560;2023-05-16T12:54:47;14.10;99.90
23497;DHT22;11925;48.122;11.560;2023-05-16T12:57:15;14.20;99.90
23497;DHT22;11925;48.122;11.560;2023-05-16T12:59:44;14.10;99.90
23497;DHT22;11925;48.122;11.560;2023-05-16T13:02:14;14.10;99.90
23497;DHT22;11925;48.122;11.560;2023-05-16T13:04:42;14.10;99.90
23497;DHT22;11925;48.122;11.560;2023-05-16T13:07:11;14.10;99.90
23497;DHT22;11925;48.122;11.560;2023-05-16T13:09:39;14.10;99.90
23497;DHT22;11925;48.122;11.560;2023-05-16T13:12:08;14.10;99.90
23497;DHT22;11925;48.122;11.560;2023-05-16T13:14:36;14.10;99.90
23497;DHT22;11925;48.122;11.560;2023-05-16T13:17:07;13.90;99.90
23497;DHT22;11925;48.122;11.560;2023-05-16T13:19:39;14.20;99.90
23497;DHT22;11925;48.122;11.560;2023-05-16T13:22:07;14.10;99.90
23497;DHT22;11925;48.122;11.560;2023-05-16T13:24:36;14.40;99.90
23497;DHT22;11925;48.122;11.560;2023-05-16T13:27:05;14.20;99.90
23497;DHT22;11925;48.122;11.560;2023-05-16T13:32:03;14.20;99.90
23497;DHT22;11925;48.122;11.560;2023-05-16T13:34:32;14.20;99.90
23497;DHT22;11925;48.122;11.560;2023-05-16T13:37:02;14.20;99.90
23497;DHT22;11925;48.122;11.560;2023-05-16T13:39:31;14.20;99.90
23497;DHT22;11925;48.122;11.560;2023-05-16T13:41:59;14.20;99.90
23497;DHT22;11925;48.122;11.560;2023-05-16T13:44:29;14.30;99.90
23497;DHT22;11925;48.122;11.560;2023-05-16T13:46:57;14.30;99.90
23497;DHT22;11925;48.122;11.560;2023-05-16T13:49:26;14.30;99.90
23497;DHT22;11925;48.122;11.560;2023-05-16T13:51:54;14.60;99.90
23497;DHT22;11925;48.122;11.560;2023-05-16T13:54:25;14.30;99.90
23497;DHT22;11925;48.122;11.560;2023-05-16T13:56:54;14.20;99.90
23497;DHT22;11925;48.122;11.560;2023-05-16T13:59:23;14.20;99.90
23497;DHT22;11925;48.122;11.560;2023-05-16T14:02:12;14.30;99.90
23497;DHT22;11925;48.122;11.560;2023-05-16T14:04:40;14.30;99.90
23497;DHT22;11925;48.122;11.560;2023-05-16T14:07:08;14.30;99.90
23497;DHT22;11925;48.122;11.560;2023-05-16T14:09:38;14.30;99.90
23497;DHT22;11925;48.122;11.560;2023-05-16T14:12:07;14.30;99.90
23497;DHT22;11925;48.122;11.560;2023-05-16T14:14:36;14.30;99.90
23497;DHT22;11925;48.122;11.560;2023-05-16T14:17:05;14.20;99.90
23497;DHT22;11925;48.122;11.560;2023-05-16T14:19:33;14.30;99.90
23497;DHT22;11925;48.122;11.560;2023-05-16T14:22:02;14.30;99.90
23497;DHT22;11925;48.122;11.560;2023-05-16T14:24:30;14.30;99.90
23497;DHT22;11925;48.122;11.560;2023-05-16T14:27:01;14.30;99.90
23497;DHT22;11925;48.122;11.560;2023-05-16T14:29:29;14.20;99.90
23497;DHT22;11925;48.122;11.560;2023-05-16T14:31:57;14.20;99.90
23497;DHT22;11925;48.122;11.560;2023-05-16T14:34:26;14.30;99.90
23497;DHT22;11925;48.122;11.560;2023-05-16T14:36:54;14.30;99.90
23497;DHT22;11925;48.122;11.560;2023-05-16T14:39:22;14.30;99.90
23497;DHT22;11925;48.122;11.560;2023-05-16T14:41:51;14.40;99.90
23497;DHT22;11925;48.122;11.560;2023-05-16T14:44:21;14.40;99.90
23497;DHT22;11925;48.122;11.560;2023-05-16T14:46:50;14.40;99.90
23497;DHT22;11925;48.122;11.560;2023-05-16T14:49:19;14.40;99.90
23497;DHT22;11925;48.122;11.560;2023-05-16T14:51:47;14.30;99.90
23497;DHT22;11925;48.122;11.560;2023-05-16T14:54:16;14.20;99.90
23497;DHT22;11925;48.122;11.560;2023-05-16T14:56:45;14.20;99.90
23497;DHT22;11925;48.122;11.560;2023-05-16T14:59:13;14.30;99.90
23497;DHT22;11925;48.122;11.560;2023-05-16T15:01:44;14.20;99.90
23497;DHT22;11925;48.122;11.560;2023-05-16T15:04:13;14.60;99.90
23497;DHT22;11925;48.122;11.560;2023-05-16T15:06:41;14.30;99.90
23497;DHT22;11925;48.122;11.560;2023-05-16T15:09:10;14.30;99.90
23497;DHT22;11925;48.122;11.560;2023-05-16T15:11:38;14.30;99.90
23497;DHT22;11925;48.122;11.560;2023-05-16T15:14:07;14.20;99.90
23497;DHT22;11925;48.122;11.560;2023-05-16T15:16:35;14.30;99.90
23497;DHT22;11925;48.122;11.560;2023-05-16T15:19:06;14.30;99.90
23497;DHT22;11925;48.122;11.560;2023-05-16T15:21:34;14.30;99.90
23497;DHT22;11925;48.122;11.560;2023-05-16T15:24:04;14.30;99.90
23497;DHT22;11925;48.122;11.560;2023-05-16T15:26:32;14.30;99.90
23497;DHT22;11925;48.122;11.560;2023-05-16T15:29:01;14.30;99.90
23497;DHT22;11925;48.122;11.560;2023-05-16T15:31:29;14.30;99.90
23497;DHT22;11925;48.122;11.560;2023-05-16T15:33:58;14.30;99.90